Time;durP1;ratioP1;P1;durP2;ratioP2;P2;SDS_P1;SDS_P2;PMS_P1;PMS_P2;Temp;Humidity;BMP_temperature;BMP_pressure;BME280_temperature;BME280_humidity;BME280_pressure;Samples;Min_cycle;Max_cycle;Signal;HPM_P1;HPM_P2
2021/04/23 00:02:03;;;;;;;1.77;0.68;;;;;;;22.97;46.09;99087.09;5123567;27;20323;-71
2021/04/23 00:04:29;;;;;;;2.40;0.95;;;;;;;22.95;47.11;99084.59;5128305;27;20207;-74
2021/04/23 00:06:58;;;;;;;1.15;0.70;;;;;;;22.95;46.32;99086.38;5129985;27;20212;-73
2021/04/23 00:09:28;;;;;;;1.65;0.80;;;;;;;22.92;46.64;99088.38;5118153;27;20301;-73
2021/04/23 00:11:58;;;;;;;1.42;1.00;;;;;;;22.93;46.86;99099.88;5127673;27;20221;-73
2021/04/23 00:14:27;;;;;;;2.15;0.98;;;;;;;22.90;46.23;99090.34;5120972;27;20308;-71
2021/04/23 00:16:54;;;;;;;2.05;0.75;;;;;;;22.90;46.11;99095.69;5122410;27;20215;-73
2021/04/23 00:19:22;;;;;;;2.63;0.95;;;;;;;22.90;46.21;99095.69;5119294;27;20288;-72
2021/04/23 00:21:50;;;;;;;2.33;0.80;;;;;;;22.88;46.58;99099.47;5125923;27;20208;-72
2021/04/23 00:24:16;;;;;;;2.45;0.90;;;;;;;22.87;46.71;99101.31;5119987;27;20224;-72
2021/04/23 00:26:43;;;;;;;4.15;0.82;;;;;;;22.85;46.67;99097.13;5118348;27;20599;-71
2021/04/23 00:29:10;;;;;;;1.77;0.65;;;;;;;22.84;46.64;99096.25;5123841;27;20213;-71
2021/04/23 00:31:39;;;;;;;2.72;0.70;;;;;;;22.84;46.73;99096.25;5115763;27;20276;-71
2021/04/23 00:34:05;;;;;;;0.98;0.55;;;;;;;22.82;46.41;99092.91;5123214;27;20211;-71
2021/04/23 00:36:31;;;;;;;2.13;0.70;;;;;;;22.83;46.69;99096.41;5122895;27;20659;-73
2021/04/23 00:38:58;;;;;;;1.25;0.52;;;;;;;22.82;46.59;99097.41;5114614;27;20379;-73
2021/04/23 00:41:28;;;;;;;3.92;0.70;;;;;;;22.80;47.33;99094.88;5127320;27;20238;-73
2021/04/23 00:43:57;;;;;;;2.88;1.05;;;;;;;22.80;47.05;99094.88;5116898;27;20212;-73
2021/04/23 00:46:25;;;;;;;1.75;0.68;;;;;;;22.80;47.15;99094.88;5122791;27;20291;-71
2021/04/23 00:48:52;;;;;;;2.33;0.98;;;;;;;22.81;47.09;99098.38;5109478;27;20839;-73
2021/04/23 00:51:22;;;;;;;1.60;0.70;;;;;;;22.81;46.91;99101.03;5121781;27;20204;-72
2021/04/23 00:53:51;;;;;;;1.73;0.95;;;;;;;22.81;47.24;99104.53;5122257;27;20350;-68
2021/04/23 00:56:20;;;;;;;1.20;0.60;;;;;;;22.81;46.57;99101.88;5119586;27;20201;-66
2021/04/23 00:58:47;;;;;;;1.45;0.60;;;;;;;22.81;47.38;99103.72;5113868;27;20705;-70
2021/04/23 01:01:18;;;;;;;1.65;0.65;;;;;;;22.81;46.85;99096.53;5122954;27;20204;-71
2021/04/23 01:03:46;;;;;;;4.00;0.90;;;;;;;22.82;46.38;99102.75;5121814;27;20205;-72
2021/04/23 01:06:14;;;;;;;1.23;0.80;;;;;;;22.81;46.74;99099.22;5126589;27;20284;-70
2021/04/23 01:08:41;;;;;;;1.15;0.70;;;;;;;22.81;46.77;99101.03;5124474;27;20200;-71
2021/04/23 01:11:08;;;;;;;1.42;0.60;;;;;;;22.80;46.76;99094.88;5127414;27;20489;-72
2021/04/23 01:13:34;;;;;;;3.80;0.70;;;;;;;22.79;46.58;99095.84;5124639;27;20223;-72
2021/04/23 01:16:02;;;;;;;1.23;0.60;;;;;;;22.79;46.20;99098.53;5124121;27;20225;-71
2021/04/23 01:18:28;;;;;;;1.63;0.75;;;;;;;22.79;46.75;99097.69;5123245;27;20292;-72
2021/04/23 01:21:04;;;;;;;2.42;0.70;;;;;;;22.78;46.57;99096.84;5125155;27;20201;-72
2021/04/23 01:23:30;;;;;;;1.63;0.70;;;;;;;22.78;46.20;99096.84;5116379;27;20562;-68
2021/04/23 01:25:56;;;;;;;1.17;0.82;;;;;;;22.78;46.84;99090.66;5124617;27;20205;-71
2021/04/23 01:28:22;;;;;;;1.15;0.70;;;;;;;22.77;46.12;99095.19;5123047;27;20200;-71
2021/04/23 01:30:49;;;;;;;0.88;0.52;;;;;;;22.77;47.16;99089.00;5133424;27;20224;-71
2021/04/23 01:33:15;;;;;;;0.60;0.47;;;;;;;22.78;47.32;99093.34;5118419;27;20855;-68
2021/04/23 01:35:42;;;;;;;1.25;0.60;;;;;;;22.78;46.22;99088.00;5130237;27;20388;-71
2021/04/23 01:38:09;;;;;;;1.65;0.85;;;;;;;22.77;47.30;99094.34;5129948;27;20211;-72
2021/04/23 01:40:36;;;;;;;1.73;0.80;;;;;;;22.76;46.70;99088.16;5124584;27;20275;-72
2021/04/23 01:43:02;;;;;;;1.73;0.75;;;;;;;22.77;47.14;99099.69;5119955;27;20697;-71
2021/04/23 01:45:28;;;;;;;1.58;0.75;;;;;;;22.77;47.14;99097.00;5123018;27;20732;-69
2021/04/23 01:47:55;;;;;;;2.83;0.77;;;;;;;22.76;46.50;99097.97;5118366;28;20205;-72
2021/04/23 01:50:22;;;;;;;1.92;0.60;;;;;;;22.74;46.96;99095.47;5118980;27;20669;-73
2021/04/23 01:52:49;;;;;;;0.98;0.57;;;;;;;22.75;47.40;99096.28;5122963;27;20220;-72
2021/04/23 01:55:18;;;;;;;1.08;0.80;;;;;;;22.75;46.86;99101.63;5124880;27;20288;-71
2021/04/23 01:57:45;;;;;;;1.77;0.63;;;;;;;22.73;47.51;99110.63;5120657;27;20636;-72
2021/04/23 02:00:17;;;;;;;1.48;0.52;;;;;;;22.74;47.39;99108.78;5126558;27;20284;-71
2021/04/23 02:02:44;;;;;;;1.42;0.57;;;;;;;22.73;46.75;99109.75;5126582;27;20558;-71
2021/04/23 02:05:12;;;;;;;2.55;0.63;;;;;;;22.73;47.11;99112.44;5134704;27;20218;-70
2021/04/23 02:07:38;;;;;;;2.85;0.77;;;;;;;22.72;47.58;99113.44;5129537;27;20232;-71
2021/04/23 02:10:09;;;;;;;1.52;0.75;;;;;;;22.72;47.38;99118.75;5121524;27;20274;-68
2021/04/23 02:12:36;;;;;;;1.83;0.80;;;;;;;22.71;47.25;99115.22;5127434;27;20227;-71
2021/04/23 02:15:03;;;;;;;1.40;0.57;;;;;;;22.71;47.03;99114.41;5128593;27;20949;-71
2021/04/23 02:17:29;;;;;;;2.47;0.70;;;;;;;22.71;46.66;99117.06;5122892;27;20291;-71
2021/04/23 02:19:55;;;;;;;1.00;0.60;;;;;;;22.70;47.20;99120.75;5128888;27;20202;-71
2021/04/23 02:22:22;;;;;;;1.60;0.70;;;;;;;22.71;46.39;99122.41;5127788;27;20600;-71
2021/04/23 02:24:48;;;;;;;0.85;0.60;;;;;;;22.70;46.64;99120.75;5123792;27;20258;-72
2021/04/23 02:27:14;;;;;;;1.77;0.60;;;;;;;22.70;46.76;99126.06;5119041;27;20319;-71
2021/04/23 02:29:41;;;;;;;1.67;0.70;;;;;;;22.69;46.67;99119.88;5129968;27;20232;-69
2021/04/23 02:32:07;;;;;;;2.90;0.63;;;;;;;22.69;46.62;99127.03;5121114;27;20249;-72
2021/04/23 02:34:34;;;;;;;1.83;0.60;;;;;;;22.69;47.27;99129.72;5121253;27;20598;-71
2021/04/23 02:37:00;;;;;;;2.25;0.80;;;;;;;22.67;47.33;99131.69;5127869;27;20209;-70
2021/04/23 02:39:26;;;;;;;1.10;0.70;;;;;;;22.67;47.40;99131.69;5119215;27;20216;-70
2021/04/23 02:41:54;;;;;;;1.27;0.70;;;;;;;22.67;47.38;99126.34;5118011;27;20235;-70
2021/04/23 02:44:21;;;;;;;2.33;0.80;;;;;;;22.66;46.80;99138.00;5125679;27;20362;-70
2021/04/23 02:46:48;;;;;;;2.65;0.93;;;;;;;22.66;46.50;99130.00;5128508;27;20200;-70
2021/04/23 02:49:14;;;;;;;1.90;0.73;;;;;;;22.66;46.79;99127.34;5128806;27;20205;-68
2021/04/23 02:51:43;;;;;;;1.25;0.80;;;;;;;22.66;47.47;99138.00;5123199;27;20681;-70
2021/04/23 02:54:11;;;;;;;1.63;0.50;;;;;;;22.64;46.36;99132.81;5112861;27;20196;-70
2021/04/23 02:56:38;;;;;;;2.15;0.70;;;;;;;22.64;47.56;99142.63;5119382;27;20402;-70
2021/04/23 02:59:05;;;;;;;1.63;0.77;;;;;;;22.64;47.62;99137.31;5127269;27;20223;-68
2021/04/23 03:01:35;;;;;;;1.95;0.70;;;;;;;22.62;47.51;99145.44;5123980;27;20786;-72
2021/04/23 03:04:03;;;;;;;2.22;0.77;;;;;;;22.62;47.38;99133.94;5132459;27;20231;-72
2021/04/23 03:06:30;;;;;;;1.48;0.80;;;;;;;22.62;47.00;99133.94;5134373;27;20482;-71
2021/04/23 03:08:56;;;;;;;1.67;0.50;;;;;;;22.62;46.84;99133.94;5126810;27;20614;-71
2021/04/23 03:11:24;;;;;;;0.70;0.50;;;;;;;22.62;47.12;99139.28;5119171;27;20208;-71
2021/04/23 03:13:52;;;;;;;0.77;0.60;;;;;;;22.62;46.59;99139.28;5125707;27;20323;-71
2021/04/23 03:16:19;;;;;;;1.45;0.70;;;;;;;22.62;46.53;99139.28;5113862;27;20207;-70
2021/04/23 03:18:47;;;;;;;0.75;0.60;;;;;;;22.61;46.50;99145.56;5120658;27;20201;-70
2021/04/23 03:21:23;;;;;;;4.28;0.90;;;;;;;22.60;47.44;99141.22;5121127;27;20602;-71
2021/04/23 03:23:49;;;;;;;0.93;0.70;;;;;;;22.61;46.14;99140.25;5119475;27;20212;-71
2021/04/23 03:26:17;;;;;;;1.17;0.70;;;;;;;22.60;46.86;99147.41;5133201;27;20209;-71
2021/04/23 03:28:45;;;;;;;1.13;0.60;;;;;;;22.60;46.60;99146.56;5131428;27;20257;-69
2021/04/23 03:31:12;;;;;;;1.55;0.82;;;;;;;22.60;47.38;99149.22;5124860;27;20249;-70
2021/04/23 03:33:40;;;;;;;1.50;0.60;;;;;;;22.59;46.94;99144.88;5127046;27;20197;-70
2021/04/23 03:36:09;;;;;;;2.83;0.80;;;;;;;22.59;47.12;99144.88;5126586;27;20212;-72
2021/04/23 03:38:39;;;;;;;1.00;0.60;;;;;;;22.58;47.24;99149.34;5124318;27;20217;-70
2021/04/23 03:41:08;;;;;;;0.98;0.55;;;;;;;22.59;46.74;99150.22;5123406;27;20316;-70
2021/04/23 03:43:34;;;;;;;1.65;0.75;;;;;;;22.59;47.00;99155.53;5122563;27;20258;-71
2021/04/23 03:46:00;;;;;;;1.60;0.60;;;;;;;22.59;47.20;99155.53;5127461;27;20211;-72
2021/04/23 03:48:27;;;;;;;1.10;0.60;;;;;;;22.59;46.90;99159.03;5116485;27;20627;-70
2021/04/23 03:50:53;;;;;;;1.42;0.50;;;;;;;22.60;46.71;99157.22;5125934;27;20203;-71
2021/04/23 03:53:19;;;;;;;1.88;0.63;;;;;;;22.61;46.79;99156.25;5113642;27;20232;-71
2021/04/23 03:55:49;;;;;;;1.33;0.60;;;;;;;22.61;46.73;99158.91;5126237;27;20229;-67
2021/04/23 03:58:18;;;;;;;1.63;0.70;;;;;;;22.61;46.50;99161.56;5126242;27;20209;-71
2021/04/23 04:00:48;;;;;;;1.48;0.68;;;;;;;22.61;46.81;99164.22;5125219;27;20223;-71
2021/04/23 04:03:14;;;;;;;2.08;0.75;;;;;;;22.62;46.66;99163.25;5124801;27;20243;-70
2021/04/23 04:05:41;;;;;;;0.95;0.60;;;;;;;22.61;46.87;99165.06;5124298;27;20609;-70
2021/04/23 04:08:08;;;;;;;1.35;0.70;;;;;;;22.62;47.32;99165.94;5125196;27;20248;-71
2021/04/23 04:10:36;;;;;;;0.85;0.40;;;;;;;22.62;47.42;99166.75;5115528;27;20204;-71
2021/04/23 04:13:04;;;;;;;1.67;0.60;;;;;;;22.62;47.38;99165.94;5121248;27;20749;-72
2021/04/23 04:15:31;;;;;;;0.95;0.60;;;;;;;22.63;46.92;99180.91;5115114;27;20701;-71
2021/04/23 04:17:58;;;;;;;2.13;0.70;;;;;;;22.63;47.41;99178.25;5124401;27;20270;-71
2021/04/23 04:20:26;;;;;;;0.90;0.60;;;;;;;22.62;46.80;99180.09;5126656;27;20212;-71
2021/04/23 04:22:52;;;;;;;4.40;0.52;;;;;;;22.63;47.19;99180.91;5125538;27;20224;-72
2021/04/23 04:25:21;;;;;;;0.80;0.60;;;;;;;22.64;47.34;99174.63;5126370;27;20238;-70
2021/04/23 04:27:47;;;;;;;1.38;0.52;;;;;;;22.63;47.08;99179.13;5120489;27;20647;-72
2021/04/23 04:30:15;;;;;;;2.47;0.80;;;;;;;22.63;47.46;99179.13;5125356;27;20575;-72
2021/04/23 04:32:41;;;;;;;1.15;0.60;;;;;;;22.63;47.21;99175.59;5125352;27;20234;-71
2021/04/23 04:35:08;;;;;;;0.52;0.40;;;;;;;22.64;47.20;99190.59;5126119;27;20711;-70
2021/04/23 04:37:35;;;;;;;1.23;0.60;;;;;;;22.65;46.73;99184.28;5125605;27;20201;-72
2021/04/23 04:40:01;;;;;;;1.85;0.65;;;;;;;22.64;47.11;99187.94;5120494;27;20358;-71
2021/04/23 04:42:28;;;;;;;0.77;0.70;;;;;;;22.65;46.72;99187.78;5124659;27;20648;-69
2021/04/23 04:45:00;;;;;;;1.52;0.55;;;;;;;22.65;46.45;99197.59;5118065;27;20293;-70
2021/04/23 04:47:28;;;;;;;0.82;0.52;;;;;;;22.66;47.21;99193.97;5126256;27;20292;-70
2021/04/23 04:49:54;;;;;;;2.13;0.73;;;;;;;22.66;46.34;99196.63;5108590;27;20221;-72
2021/04/23 04:52:20;;;;;;;0.80;0.52;;;;;;;22.65;46.29;99195.78;5119099;27;20237;-70
2021/04/23 04:54:46;;;;;;;0.75;0.50;;;;;;;22.65;46.27;99198.47;5125710;27;20652;-71
2021/04/23 04:57:13;;;;;;;1.10;0.60;;;;;;;22.66;47.10;99193.97;5114557;27;20855;-71
2021/04/23 04:59:39;;;;;;;1.83;0.75;;;;;;;22.67;46.27;99198.31;5121836;27;20201;-71
2021/04/23 05:02:05;;;;;;;0.90;0.45;;;;;;;22.66;46.86;99193.97;5115758;27;20354;-69
2021/04/23 05:04:32;;;;;;;1.08;0.55;;;;;;;22.65;47.14;99206.44;5123694;27;20891;-71
2021/04/23 05:06:58;;;;;;;1.63;0.70;;;;;;;22.64;46.45;99199.44;5124476;27;20212;-70
2021/04/23 05:09:24;;;;;;;1.95;0.57;;;;;;;22.65;47.08;99202.91;5123436;27;20687;-70
2021/04/23 05:11:50;;;;;;;1.58;0.82;;;;;;;22.65;46.99;99208.25;5117262;27;20312;-72
2021/04/23 05:14:16;;;;;;;1.80;0.60;;;;;;;22.64;46.78;99206.59;5116232;27;20193;-70
2021/04/23 05:16:42;;;;;;;1.40;0.70;;;;;;;22.63;47.42;99215.56;5121813;27;20215;-68
2021/04/23 05:19:08;;;;;;;1.25;0.60;;;;;;;22.63;47.18;99210.22;5121526;27;20287;-68
2021/04/23 05:21:37;;;;;;;1.33;0.80;;;;;;;22.63;47.14;99218.22;5120481;27;20270;-71
2021/04/23 05:24:04;;;;;;;1.00;0.55;;;;;;;22.62;47.33;99214.72;5113926;27;20237;-72
2021/04/23 05:26:30;;;;;;;1.08;0.70;;;;;;;22.61;46.22;99222.88;5125530;27;20284;-73
2021/04/23 05:28:56;;;;;;;4.10;0.82;;;;;;;22.59;46.91;99230.16;5118872;27;20308;-69
2021/04/23 05:31:22;;;;;;;5.10;1.38;;;;;;;22.59;46.64;99219.50;5118438;27;20716;-70
2021/04/23 05:33:49;;;;;;;9.70;1.25;;;;;;;22.61;47.08;99233.53;5119593;27;20284;-73
2021/04/23 05:36:15;;;;;;;7.35;0.95;;;;;;;22.61;46.90;99239.69;5116366;27;20635;-69
2021/04/23 05:38:42;;;;;;;5.13;1.10;;;;;;;22.64;47.60;99241.25;5121475;27;20307;-69
2021/04/23 05:41:08;;;;;;;5.13;1.15;;;;;;;22.66;47.79;99240.09;5119638;27;20201;-69
2021/04/23 05:43:34;;;;;;;3.80;1.10;;;;;;;22.67;47.48;99239.13;5111816;27;20315;-71
2021/04/23 05:46:00;;;;;;;4.78;1.13;;;;;;;22.69;46.69;99250.47;5121893;27;20245;-67
2021/04/23 05:48:26;;;;;;;4.32;1.27;;;;;;;22.73;47.25;99243.03;5122596;27;20204;-67
2021/04/23 05:50:53;;;;;;;6.45;1.40;;;;;;;22.76;47.10;99250.75;5119227;27;20198;-69
2021/04/23 05:53:19;;;;;;;4.70;1.42;;;;;;;22.78;47.63;99253.28;5127160;27;20304;-69
2021/04/23 05:55:46;;;;;;;11.48;1.60;;;;;;;22.77;46.83;99249.78;5125309;27;21162;-71
2021/04/23 05:58:12;;;;;;;16.98;1.33;;;;;;;22.79;47.91;99253.13;5121501;27;20699;-69
2021/04/23 06:00:42;;;;;;;8.80;1.00;;;;;;;22.80;47.52;99257.50;5127037;27;20603;-70
2021/04/23 06:03:08;;;;;;;13.88;1.23;;;;;;;22.83;48.27;99254.56;5121004;28;20315;-68
2021/04/23 06:05:34;;;;;;;4.72;1.20;;;;;;;22.85;47.18;99255.25;5122760;27;20339;-68
2021/04/23 06:08:03;;;;;;;8.68;1.38;;;;;;;22.87;47.47;99258.59;5130627;27;20208;-69
2021/04/23 06:10:31;;;;;;;13.45;1.48;;;;;;;22.88;47.98;99257.63;5126509;27;20238;-70
2021/04/23 06:12:59;;;;;;;4.32;1.08;;;;;;;22.89;47.00;99263.78;5118829;28;20714;-69
2021/04/23 06:15:26;;;;;;;6.43;1.38;;;;;;;22.89;47.68;99263.78;5119016;27;20515;-70
2021/04/23 06:17:54;;;;;;;4.85;1.17;;;;;;;22.90;47.71;99270.81;5121655;27;20292;-71
2021/04/23 06:20:23;;;;;;;4.65;0.90;;;;;;;22.88;47.61;99265.63;5119460;27;20280;-71
2021/04/23 06:22:50;;;;;;;5.63;1.15;;;;;;;22.90;46.35;99265.47;5121014;27;20311;-70
2021/04/23 06:25:17;;;;;;;9.40;1.50;;;;;;;22.95;46.33;99268.56;5116463;27;20300;-71
2021/04/23 06:27:45;;;;;;;13.23;1.98;;;;;;;23.00;47.85;99270.78;5118534;27;20295;-68
2021/04/23 06:30:15;;;;;;;4.13;1.40;;;;;;;23.03;48.07;99260.69;5118203;28;20686;-71
2021/04/23 06:32:43;;;;;;;5.35;1.13;;;;;;;23.05;46.84;99265.88;5118237;28;20853;-68
2021/04/23 06:35:11;;;;;;;8.00;1.75;;;;;;;23.07;47.63;99270.09;5122948;28;20293;-70
2021/04/23 06:37:38;;;;;;;7.15;1.33;;;;;;;23.09;47.04;99275.28;5124901;27;20232;-70
2021/04/23 06:40:06;;;;;;;4.00;1.63;;;;;;;23.08;47.47;99284.28;5131995;27;20283;-72
2021/04/23 06:42:32;;;;;;;9.90;1.50;;;;;;;23.07;46.44;99283.44;5124388;27;20319;-71
2021/04/23 06:44:58;;;;;;;5.30;1.60;;;;;;;23.09;47.37;99280.63;5124767;27;20228;-70
2021/04/23 06:47:26;;;;;;;8.07;1.55;;;;;;;23.12;47.05;99279.50;5131038;27;20323;-72
2021/04/23 06:49:52;;;;;;;4.15;1.60;;;;;;;23.14;47.18;99278.38;5121779;27;20205;-70
2021/04/23 06:52:19;;;;;;;5.60;1.50;;;;;;;23.16;46.58;99283.56;5125794;27;20255;-71
2021/04/23 06:54:45;;;;;;;9.25;1.50;;;;;;;23.16;46.62;99281.72;5126485;27;20220;-69
2021/04/23 06:57:11;;;;;;;8.90;1.90;;;;;;;23.17;46.24;99278.09;5122600;27;20280;-70
2021/04/23 06:59:37;;;;;;;8.45;1.70;;;;;;;23.19;46.85;99280.59;5126161;27;20684;-67
2021/04/23 07:02:04;;;;;;;8.45;1.52;;;;;;;23.18;46.25;99274.44;5123842;27;20221;-70
2021/04/23 07:04:31;;;;;;;3.38;1.45;;;;;;;23.18;46.43;99279.78;5126496;27;20588;-71
2021/04/23 07:06:57;;;;;;;6.10;1.30;;;;;;;23.18;45.73;99285.13;5112871;27;20796;-70
2021/04/23 07:09:24;;;;;;;6.07;1.83;;;;;;;23.19;46.87;99285.94;5123330;27;20240;-70
2021/04/23 07:11:50;;;;;;;6.25;1.60;;;;;;;23.16;45.66;99284.41;5122508;27;20753;-69
2021/04/23 07:14:16;;;;;;;6.90;1.90;;;;;;;23.16;46.46;99284.41;5125251;27;20239;-69
2021/04/23 07:16:42;;;;;;;10.45;1.80;;;;;;;23.16;45.88;99284.41;5128209;27;20594;-70
2021/04/23 07:19:08;;;;;;;7.95;1.92;;;;;;;23.15;45.72;99285.41;5126397;27;20277;-69
2021/04/23 07:21:36;;;;;;;10.27;1.80;;;;;;;23.13;46.38;99286.50;5128449;27;20312;-70
2021/04/23 07:24:02;;;;;;;7.30;1.75;;;;;;;23.12;45.80;99280.34;5123276;27;20348;-68
2021/04/23 07:26:28;;;;;;;6.53;2.05;;;;;;;23.11;45.82;99283.97;5134244;27;20228;-70
2021/04/23 07:28:55;;;;;;;5.60;1.42;;;;;;;23.11;46.25;99283.16;5126045;27;20212;-70
2021/04/23 07:31:22;;;;;;;8.38;1.55;;;;;;;23.11;46.15;99293.81;5125810;27;20208;-67
2021/04/23 07:33:48;;;;;;;12.02;2.65;;;;;;;23.05;43.48;99293.38;5129463;27;20300;-66
2021/04/23 07:36:14;;;;;;;15.43;2.28;;;;;;;23.09;43.60;99291.28;5132115;27;20624;-71
2021/04/23 07:38:41;;;;;;;13.52;1.95;;;;;;;23.11;43.96;99293.81;5134615;27;20209;-67
2021/04/23 07:41:08;;;;;;;8.75;2.05;;;;;;;23.12;45.03;99295.50;5131878;27;20211;-67
2021/04/23 07:43:34;;;;;;;6.95;1.85;;;;;;;23.12;45.09;99291.00;5121841;27;20233;-69
2021/04/23 07:46:02;;;;;;;8.52;1.77;;;;;;;23.13;44.93;99286.50;5130939;27;20670;-69
2021/04/23 07:48:28;;;;;;;6.80;2.22;;;;;;;23.14;44.68;99294.38;5137987;27;20526;-68
2021/04/23 07:50:56;;;;;;;12.15;1.60;;;;;;;23.15;44.85;99296.06;5134916;27;20225;-69
2021/04/23 07:53:23;;;;;;;5.50;1.85;;;;;;;23.14;44.68;99289.03;5133090;27;20270;-66
2021/04/23 07:55:51;;;;;;;8.50;2.05;;;;;;;23.14;45.72;99289.03;5127251;27;20204;-69
2021/04/23 07:58:17;;;;;;;8.10;1.85;;;;;;;23.13;45.51;99291.84;5131345;27;20280;-68
2021/04/23 08:00:43;;;;;;;6.70;1.75;;;;;;;23.12;45.30;99290.19;5129142;27;20196;-68
2021/04/23 08:03:09;;;;;;;5.57;1.50;;;;;;;23.11;45.80;99292.00;5135150;27;20756;-68
2021/04/23 08:05:36;;;;;;;7.32;1.60;;;;;;;23.07;45.56;99290.59;5136071;27;20203;-68
2021/04/23 08:08:04;;;;;;;5.20;1.80;;;;;;;23.08;45.79;99286.94;5135749;27;20256;-69
2021/04/23 08:10:31;;;;;;;8.55;1.63;;;;;;;23.02;44.96;99296.34;5131167;27;20204;-68
2021/04/23 08:12:59;;;;;;;9.02;1.83;;;;;;;22.99;45.85;99296.59;5134534;27;20217;-69
2021/04/23 08:15:26;;;;;;;7.80;1.90;;;;;;;22.97;45.86;99287.09;5135763;27;20382;-65
2021/04/23 08:17:53;;;;;;;5.13;1.63;;;;;;;22.96;45.36;99288.06;5136867;27;20277;-69
2021/04/23 08:20:20;;;;;;;4.75;1.83;;;;;;;22.94;44.58;99288.19;5123959;27;20239;-68
2021/04/23 08:22:46;;;;;;;11.60;2.22;;;;;;;22.92;44.53;99293.66;5130596;27;20225;-64
2021/04/23 08:25:16;;;;;;;6.30;1.77;;;;;;;22.94;44.36;99290.03;5129826;27;20204;-67
2021/04/23 08:27:43;;;;;;;6.93;1.58;;;;;;;22.93;45.25;99283.84;5134239;27;20231;-62
2021/04/23 08:30:11;;;;;;;5.10;1.48;;;;;;;22.92;46.03;99288.34;5132884;27;20311;-67
2021/04/23 08:32:38;;;;;;;7.28;2.00;;;;;;;22.92;45.36;99290.19;5121260;27;20642;-69
2021/04/23 08:35:06;;;;;;;8.40;1.77;;;;;;;22.91;44.92;99286.69;5126130;27;20644;-68
2021/04/23 08:37:32;;;;;;;11.07;1.95;;;;;;;22.90;45.88;99282.31;5131422;27;20213;-66
2021/04/23 08:39:59;;;;;;;5.05;1.38;;;;;;;22.88;45.67;99289.63;5117359;28;20565;-67
2021/04/23 08:42:25;;;;;;;4.03;1.60;;;;;;;22.88;46.02;99288.75;5130004;27;20220;-66
2021/04/23 08:44:52;;;;;;;7.28;1.85;;;;;;;22.87;45.18;99287.09;5132011;27;20275;-66
2021/04/23 08:47:19;;;;;;;6.07;1.55;;;;;;;22.86;45.75;99286.22;5128142;27;20245;-66
2021/04/23 08:49:46;;;;;;;7.28;1.92;;;;;;;22.85;45.67;99284.56;5119015;27;20258;-66
2021/04/23 08:52:13;;;;;;;3.33;1.30;;;;;;;22.84;45.54;99282.88;5126031;27;20697;-66
2021/04/23 08:54:39;;;;;;;4.95;1.63;;;;;;;22.83;46.06;99285.69;5129967;27;20279;-67
2021/04/23 08:57:07;;;;;;;2.92;1.42;;;;;;;22.81;45.28;99283.16;5132216;27;20205;-67
2021/04/23 08:59:33;;;;;;;3.33;1.27;;;;;;;22.81;45.20;99293.81;5131165;27;20274;-67
2021/04/23 09:02:00;;;;;;;4.95;1.50;;;;;;;22.81;45.50;99282.31;5132700;27;20213;-68
2021/04/23 09:04:27;;;;;;;7.03;1.70;;;;;;;22.80;45.19;99292.16;5139318;27;20235;-67
2021/04/23 09:07:04;;;;;;;4.10;1.40;;;;;;;22.79;45.44;99279.78;5138162;27;20201;-65
2021/04/23 09:09:35;;;;;;;4.93;1.95;;;;;;;22.78;46.27;99288.75;5130342;27;20297;-65
2021/04/23 09:12:16;;;;;;;2.92;1.33;;;;;;;22.78;46.20;99285.28;5132543;27;20224;-65
2021/04/23 09:14:43;;;;;;;3.45;1.55;;;;;;;22.76;46.01;99276.56;5122628;27;20196;-67
2021/04/23 09:17:09;;;;;;;3.17;1.17;;;;;;;22.76;46.21;99280.06;5143848;27;20278;-66
2021/04/23 09:19:37;;;;;;;8.23;1.50;;;;;;;22.75;45.59;99281.06;5120443;27;20238;-65
2021/04/23 09:22:06;;;;;;;3.60;1.38;;;;;;;22.74;45.34;99271.38;5127782;27;20225;-68
2021/04/23 09:24:34;;;;;;;6.10;1.25;;;;;;;22.73;45.57;99280.34;5129406;27;20220;-66
2021/04/23 09:27:08;;;;;;;4.65;1.40;;;;;;;22.72;45.17;99278.69;5118074;27;20204;-64
2021/04/23 09:29:36;;;;;;;3.97;1.20;;;;;;;22.70;46.01;99281.50;5122082;27;20279;-65
2021/04/23 09:32:11;;;;;;;5.53;1.60;;;;;;;22.69;45.35;99284.28;5133349;27;20212;-65
2021/04/23 09:34:51;;;;;;;4.32;1.15;;;;;;;22.68;45.26;99282.59;5121845;27;20196;-68
2021/04/23 09:37:18;;;;;;;3.85;1.30;;;;;;;22.66;45.07;99279.25;5133073;27;20246;-67
2021/04/23 09:39:46;;;;;;;3.97;1.20;;;;;;;22.65;45.11;99282.88;5125486;27;20304;-67
2021/04/23 09:42:12;;;;;;;3.85;1.27;;;;;;;22.66;46.14;99279.25;5126575;27;20311;-66
2021/04/23 09:44:40;;;;;;;4.18;1.23;;;;;;;22.68;45.65;99287.94;5118046;27;20600;-66
2021/04/23 09:47:11;;;;;;;9.88;1.27;;;;;;;22.66;45.16;99284.56;5121889;27;20280;-64
2021/04/23 09:49:38;;;;;;;15.02;1.58;;;;;;;22.68;45.67;99280.81;5117331;27;20233;-67
2021/04/23 09:52:08;;;;;;;3.03;1.10;;;;;;;22.68;45.30;99278.13;5120415;27;20260;-66
2021/04/23 09:54:36;;;;;;;6.95;1.10;;;;;;;22.68;45.48;99277.28;5129600;27;20205;-66
2021/04/23 09:57:12;;;;;;;7.55;1.13;;;;;;;22.68;45.27;99288.78;5126868;27;20200;-67
2021/04/23 09:59:48;;;;;;;3.47;1.42;;;;;;;22.67;45.54;99276.44;5140651;27;20200;-64
2021/04/23 10:02:16;;;;;;;5.85;1.17;;;;;;;22.66;46.46;99277.41;5132706;27;20246;-66
2021/04/23 10:04:42;;;;;;;4.15;1.10;;;;;;;22.66;45.91;99279.25;5131948;28;20658;-68
2021/04/23 10:07:21;;;;;;;4.97;1.52;;;;;;;22.67;46.03;99275.59;5132451;28;20236;-70
2021/04/23 10:09:54;;;;;;;4.15;1.20;;;;;;;22.65;46.15;99275.75;5130370;27;20707;-68
2021/04/23 10:12:38;;;;;;;2.55;1.15;;;;;;;22.66;46.35;99273.91;5131306;27;20311;-61
2021/04/23 10:15:08;;;;;;;2.63;1.02;;;;;;;22.65;46.26;99282.88;5135393;27;20228;-66
2021/04/23 10:17:35;;;;;;;6.28;1.00;;;;;;;22.66;45.77;99273.91;5136732;27;20213;-67
2021/04/23 10:20:02;;;;;;;2.72;0.95;;;;;;;22.65;46.05;99277.53;5136565;27;20367;-67
2021/04/23 10:22:29;;;;;;;2.97;1.30;;;;;;;22.64;46.03;99281.22;5130509;27;20650;-66
2021/04/23 10:24:55;;;;;;;4.20;1.30;;;;;;;22.62;45.41;99278.69;5133089;27;20212;-70
2021/04/23 10:27:22;;;;;;;15.00;1.77;;;;;;;22.63;45.76;99277.72;5140370;27;20204;-66
2021/04/23 10:29:51;;;;;;;6.38;1.30;;;;;;;22.62;45.83;99273.34;5129785;27;20212;-67
2021/04/23 10:32:17;;;;;;;6.95;1.50;;;;;;;22.61;45.98;99271.66;5131911;27;20225;-69
2021/04/23 10:34:44;;;;;;;5.13;1.10;;;;;;;22.62;46.72;99275.19;5130514;27;20704;-67
2021/04/23 10:37:12;;;;;;;2.72;1.00;;;;;;;22.63;46.19;99274.19;5134083;27;20283;-65
2021/04/23 10:39:43;;;;;;;3.42;1.30;;;;;;;22.62;46.96;99265.38;5131700;27;20247;-63
2021/04/23 10:42:46;;;;;;;4.38;1.30;;;;;;;22.62;46.01;99268.03;5117978;27;20281;-65
2021/04/23 10:45:35;;;;;;;3.35;1.00;;;;;;;22.61;47.11;99266.34;5128401;27;20257;-65
2021/04/23 10:48:23;;;;;;;6.97;1.50;;;;;;;22.61;46.76;99266.34;5127181;27;20208;-66
2021/04/23 10:50:52;;;;;;;6.18;1.25;;;;;;;22.62;47.00;99267.19;5131622;27;20346;-66
2021/04/23 10:53:20;;;;;;;4.63;1.20;;;;;;;22.62;46.43;99261.88;5128185;27;20229;-67
2021/04/23 10:55:50;;;;;;;5.60;1.10;;;;;;;22.61;46.75;99258.34;5126576;27;20209;-69
2021/04/23 10:58:34;;;;;;;7.40;1.00;;;;;;;22.62;47.31;99267.19;5126904;27;20299;-67
2021/04/23 11:01:01;;;;;;;2.92;1.13;;;;;;;22.63;47.43;99259.06;5119797;27;20228;-68
2021/04/23 11:03:33;;;;;;;4.30;1.20;;;;;;;22.64;47.24;99259.91;5127466;27;20229;-66
2021/04/23 11:06:02;;;;;;;6.35;1.63;;;;;;;22.66;47.83;99260.59;5122355;27;20250;-66
2021/04/23 11:08:31;;;;;;;2.33;1.10;;;;;;;22.66;47.22;99252.59;5124329;27;20543;-67
2021/04/23 11:11:15;;;;;;;3.42;1.10;;;;;;;22.69;47.44;99246.97;5125265;27;20300;-68
2021/04/23 11:13:43;;;;;;;2.90;1.00;;;;;;;22.71;47.36;99250.34;5126505;27;20266;-68
2021/04/23 11:16:32;;;;;;;3.33;1.00;;;;;;;22.73;46.76;99248.38;5123513;27;20736;-69
2021/04/23 11:19:14;;;;;;;3.83;0.98;;;;;;;22.73;47.50;99248.38;5122490;27;20299;-68
2021/04/23 11:21:40;;;;;;;1.08;0.73;;;;;;;22.72;47.11;99244.03;5111177;27;20371;-70
2021/04/23 11:24:08;;;;;;;1.92;0.90;;;;;;;22.76;46.73;99237.44;5118058;27;20404;-64
2021/04/23 11:27:07;;;;;;;2.33;0.98;;;;;;;22.81;47.76;99245.84;5122806;27;20533;-65
2021/04/23 11:29:39;;;;;;;3.90;1.00;;;;;;;22.82;47.84;99236.88;5128323;27;20284;-66
2021/04/23 11:32:14;;;;;;;9.40;1.42;;;;;;;22.83;46.81;99243.88;5124528;27;20358;-68
2021/04/23 11:34:42;;;;;;;3.60;1.10;;;;;;;22.84;47.20;99244.72;5120030;27;20305;-70
2021/04/23 11:37:13;;;;;;;2.13;1.13;;;;;;;22.85;46.27;99236.59;5123407;27;20197;-72
2021/04/23 11:39:42;;;;;;;6.25;1.38;;;;;;;22.89;45.79;99237.97;5123011;27;20204;-71